createdAt,value
2023-04-02T00:00:10.768Z,0.45
2023-04-02T00:02:56.279Z,0.13
2023-04-02T00:05:28.967Z,0.40
2023-04-02T00:08:16.806Z,0.73
2023-04-02T00:10:49.390Z,0.08
2023-04-02T00:13:15.825Z,0.30
2023-04-02T00:15:55.667Z,0.20
2023-04-02T00:18:22.533Z,0.15
2023-04-02T00:20:54.921Z,0.10
2023-04-02T00:23:22.752Z,0.55
2023-04-02T00:25:49.131Z,0.25
2023-04-02T00:28:21.249Z,0.38
2023-04-02T00:30:53.862Z,0.30
2023-04-02T00:33:23.055Z,0.40
2023-04-02T00:35:52.496Z,0.30
2023-04-02T00:38:28.306Z,0.20
2023-04-02T00:40:57.164Z,0.22
2023-04-02T00:43:26.111Z,0.20
2023-04-02T00:45:57.395Z,0.63
2023-04-02T00:48:31.639Z,0.13
2023-04-02T00:51:23.713Z,0.30
2023-04-02T00:53:54.101Z,0.20
2023-04-02T00:56:36.322Z,0.40
2023-04-02T00:59:03.078Z,0.17
2023-04-02T01:01:35.849Z,0.10
2023-04-02T01:04:04.436Z,0.90
2023-04-02T01:06:35.755Z,0.70
2023-04-02T01:09:24.837Z,0.50
2023-04-02T01:12:19.169Z,0.73
2023-04-02T01:15:12.305Z,0.40
2023-04-02T01:17:50.747Z,0.70
2023-04-02T01:20:54.191Z,0.75
2023-04-02T01:23:26.400Z,1.55
2023-04-02T01:26:11.388Z,0.73
2023-04-02T01:28:56.285Z,0.88
2023-04-02T01:31:23.818Z,0.57
2023-04-02T01:33:50.132Z,0.90
2023-04-02T01:36:27.998Z,0.50
2023-04-02T01:39:10.903Z,0.70
2023-04-02T01:41:49.195Z,0.85
2023-04-02T01:44:23.983Z,1.13
2023-04-02T01:46:50.580Z,0.80
2023-04-02T01:49:22.216Z,1.65
2023-04-02T01:51:54.765Z,1.77
2023-04-02T01:54:22.443Z,0.80
2023-04-02T01:56:51.620Z,0.80
2023-04-02T01:59:21.095Z,0.47
2023-04-02T02:02:00.617Z,0.50
2023-04-02T02:04:27.099Z,0.57
2023-04-02T02:06:53.529Z,0.55
2023-04-02T02:09:24.218Z,0.32
2023-04-02T02:11:51.213Z,0.77
2023-04-02T02:14:26.908Z,0.30
2023-04-02T02:16:59.781Z,0.25
2023-04-02T02:19:32.006Z,1.00
2023-04-02T02:22:11.156Z,0.30
2023-04-02T02:24:38.548Z,0.50
2023-04-02T02:27:22.941Z,0.70
2023-04-02T02:29:58.632Z,0.32
2023-04-02T02:32:30.566Z,0.25
2023-04-02T02:35:43.308Z,0.45
2023-04-02T02:38:29.370Z,0.95
2023-04-02T02:41:01.257Z,0.80
2023-04-02T02:43:28.285Z,0.30
2023-04-02T02:45:57.507Z,0.30
2023-04-02T02:48:34.132Z,1.20
2023-04-02T02:51:04.255Z,0.50
2023-04-02T02:53:30.674Z,0.50
2023-04-02T02:56:01.007Z,0.50
2023-04-02T02:58:31.791Z,0.75
2023-04-02T03:00:59.356Z,0.40
2023-04-02T03:03:32.388Z,0.30
2023-04-02T03:06:05.724Z,0.40
2023-04-02T03:08:41.692Z,0.35
2023-04-02T03:11:26.729Z,0.20
2023-04-02T03:13:58.356Z,0.40
2023-04-02T03:16:34.387Z,0.22
2023-04-02T03:19:15.724Z,0.47
2023-04-02T03:21:51.126Z,0.20
2023-04-02T03:26:56.489Z,0.50
2023-04-02T03:29:26.807Z,0.65
2023-04-02T03:32:39.498Z,0.43
2023-04-02T03:35:30.594Z,0.40
2023-04-02T03:38:19.501Z,0.40
2023-04-02T03:41:10.198Z,0.28
2023-04-02T03:43:42.641Z,0.20
2023-04-02T03:46:22.400Z,0.93
2023-04-02T03:48:54.800Z,0.47
2023-04-02T03:51:30.439Z,0.30
2023-04-02T03:53:56.970Z,0.30
2023-04-02T03:56:31.141Z,0.40
2023-04-02T03:59:06.029Z,0.30
2023-04-02T04:01:37.862Z,0.45
2023-04-02T04:04:12.546Z,0.68
2023-04-02T04:06:43.166Z,1.17
2023-04-02T04:09:39.021Z,0.70
2023-04-02T04:12:09.504Z,0.57
2023-04-02T04:14:41.903Z,0.30
2023-04-02T04:17:09.056Z,0.80
2023-04-02T04:19:57.770Z,0.82
2023-04-02T04:22:26.617Z,0.38
2023-04-02T04:24:52.928Z,0.40
2023-04-02T04:27:36.905Z,0.70
2023-04-02T04:30:13.554Z,0.88
2023-04-02T04:32:48.081Z,1.00
2023-04-02T04:35:37.170Z,1.53
2023-04-02T04:38:10.608Z,0.50
2023-04-02T04:40:44.149Z,0.93
2023-04-02T04:43:19.151Z,1.02
2023-04-02T04:45:56.062Z,0.75
2023-04-02T04:48:39.178Z,1.23
2023-04-02T04:51:10.173Z,0.85
2023-04-02T04:53:46.996Z,0.98
2023-04-02T04:56:19.518Z,0.77
2023-04-02T04:58:53.937Z,0.60
2023-04-02T05:01:29.915Z,0.90
2023-04-02T05:04:21.808Z,0.73
2023-04-02T05:07:07.280Z,0.52
2023-04-02T05:09:59.268Z,1.08
2023-04-02T05:12:28.549Z,1.15
2023-04-02T05:15:01.233Z,0.65
2023-04-02T05:17:43.004Z,0.80
2023-04-02T05:20:20.245Z,1.10
2023-04-02T05:23:29.527Z,0.80
2023-04-02T05:26:06.809Z,0.60
2023-04-02T05:28:40.795Z,0.80
2023-04-02T05:31:12.510Z,1.27
2023-04-02T05:33:39.832Z,0.98
2023-04-02T05:36:19.972Z,1.05
2023-04-02T05:38:48.458Z,1.23
2023-04-02T05:41:26.505Z,1.67
2023-04-02T05:44:05.457Z,1.00
2023-04-02T05:46:36.470Z,0.65
2023-04-02T05:49:06.921Z,1.30
2023-04-02T05:51:45.701Z,0.85
2023-04-02T05:54:25.621Z,1.08
2023-04-02T05:56:57.832Z,0.82
2023-04-02T05:59:31.655Z,0.90
2023-04-02T06:02:14.161Z,0.65
2023-04-02T06:04:59.026Z,0.60
2023-04-02T06:07:41.224Z,1.13
2023-04-02T06:10:33.697Z,1.00
2023-04-02T06:13:15.293Z,0.90
2023-04-02T06:15:41.850Z,0.70
2023-04-02T06:18:19.050Z,1.15
2023-04-02T06:20:46.163Z,1.48
2023-04-02T06:23:19.702Z,0.70
2023-04-02T06:25:55.342Z,0.70
2023-04-02T06:28:29.233Z,1.63
2023-04-02T06:31:00.967Z,1.02
2023-04-02T06:33:27.311Z,0.98
2023-04-02T06:35:55.356Z,1.40
2023-04-02T06:38:29.448Z,0.70
2023-04-02T06:41:04.483Z,0.82
2023-04-02T06:43:36.636Z,0.80
2023-04-02T06:46:11.866Z,0.75
2023-04-02T06:48:41.731Z,0.82
2023-04-02T06:51:12.460Z,0.93
2023-04-02T06:53:42.947Z,0.75
2023-04-02T06:56:27.290Z,0.43
2023-04-02T06:58:53.928Z,0.85
2023-04-02T07:01:25.321Z,0.50
2023-04-02T07:03:51.919Z,0.60
2023-04-02T07:06:21.275Z,0.60
2023-04-02T07:08:48.421Z,1.05
2023-04-02T07:11:19.434Z,0.55
2023-04-02T07:13:50.203Z,0.90
2023-04-02T07:16:20.517Z,0.60
2023-04-02T07:18:47.392Z,0.50
2023-04-02T07:21:14.035Z,0.85
2023-04-02T07:23:41.006Z,0.50
2023-04-02T07:26:12.786Z,0.57
2023-04-02T07:28:39.123Z,0.65
2023-04-02T07:31:15.981Z,0.88
2023-04-02T07:33:42.309Z,1.95
2023-04-02T07:36:13.511Z,1.38
2023-04-02T07:38:39.978Z,1.05
2023-04-02T07:41:07.335Z,0.77
2023-04-02T07:43:33.716Z,1.70
2023-04-02T07:46:00.018Z,0.80
2023-04-02T07:48:26.538Z,0.60
2023-04-02T07:50:53.083Z,0.90
2023-04-02T07:53:45.737Z,0.90
2023-04-02T07:56:14.876Z,1.10
2023-04-02T07:58:41.190Z,1.05
2023-04-02T08:01:15.700Z,0.95
2023-04-02T08:03:42.144Z,0.80
2023-04-02T08:06:08.608Z,1.27
2023-04-02T08:08:34.951Z,1.65
2023-04-02T08:11:01.257Z,1.40
2023-04-02T08:13:27.630Z,1.08
2023-04-02T08:15:54.001Z,1.40
2023-04-02T08:18:22.663Z,1.20
2023-04-02T08:20:49.371Z,1.30
2023-04-02T08:23:16.627Z,1.88
2023-04-02T08:25:44.154Z,2.22
2023-04-02T08:28:10.456Z,2.05
2023-04-02T08:30:36.788Z,1.75
2023-04-02T08:33:03.859Z,1.40
2023-04-02T08:35:30.887Z,2.17
2023-04-02T08:37:57.469Z,2.10
2023-04-02T08:40:36.024Z,3.17
2023-04-02T08:43:26.752Z,2.17
2023-04-02T08:46:10.248Z,1.95
2023-04-02T08:48:42.454Z,1.65
2023-04-02T08:51:21.801Z,1.75
2023-04-02T08:53:48.275Z,3.03
2023-04-02T08:56:20.442Z,2.72
2023-04-02T08:58:50.938Z,2.17
2023-04-02T09:01:36.454Z,2.70
2023-04-02T09:04:06.821Z,3.58
2023-04-02T09:06:33.985Z,3.30
2023-04-02T09:09:01.035Z,2.03
2023-04-02T09:11:52.074Z,3.42
2023-04-02T09:14:42.608Z,1.63
2023-04-02T09:17:19.128Z,1.80
2023-04-02T09:19:54.894Z,2.55
2023-04-02T09:22:27.250Z,2.03
2023-04-02T09:24:59.611Z,3.05
2023-04-02T09:27:30.012Z,2.45
2023-04-02T09:30:14.613Z,2.85
2023-04-02T09:32:54.443Z,3.50
2023-04-02T09:35:27.062Z,1.88
2023-04-02T09:38:08.935Z,2.03
2023-04-02T09:40:46.551Z,1.75
2023-04-02T09:43:16.261Z,2.25
2023-04-02T09:45:44.911Z,3.05
2023-04-02T09:48:26.893Z,4.00
2023-04-02T09:51:06.874Z,2.42
2023-04-02T09:53:36.699Z,1.85
2023-04-02T09:56:23.949Z,2.38
2023-04-02T09:59:15.261Z,2.45
2023-04-02T10:01:44.366Z,2.55
2023-04-02T10:04:41.682Z,1.95
2023-04-02T10:07:32.714Z,1.58
2023-04-02T10:10:18.121Z,1.85
2023-04-02T10:12:48.567Z,1.90
2023-04-02T10:15:20.754Z,2.40
2023-04-02T10:17:55.150Z,2.30
2023-04-02T10:20:25.632Z,1.65
2023-04-02T10:22:52.007Z,1.45
2023-04-02T10:25:24.678Z,1.80
2023-04-02T10:28:08.852Z,2.17
2023-04-02T10:30:53.472Z,1.25
2023-04-02T10:33:37.258Z,1.77
2023-04-02T10:36:32.971Z,2.25
2023-04-02T10:39:15.921Z,2.83
2023-04-02T10:41:52.184Z,2.53
2023-04-02T10:44:47.523Z,2.17
2023-04-02T10:47:32.604Z,2.43
2023-04-02T10:50:27.994Z,1.50
2023-04-02T10:53:14.558Z,1.30
2023-04-02T10:55:45.421Z,2.33
2023-04-02T10:58:29.956Z,1.80
2023-04-02T11:01:15.455Z,1.92
2023-04-02T11:03:48.368Z,2.60
2023-04-02T11:06:25.847Z,1.90
2023-04-02T11:08:58.325Z,1.63
2023-04-02T11:11:30.535Z,3.10
2023-04-02T11:14:03.075Z,2.85
2023-04-02T11:16:29.773Z,1.77
2023-04-02T11:19:21.670Z,1.70
2023-04-02T11:21:58.515Z,1.63
2023-04-02T11:24:29.116Z,1.50
2023-04-02T11:27:04.783Z,1.73
2023-04-02T11:29:33.405Z,1.90
2023-04-02T11:32:21.864Z,2.40
2023-04-02T11:34:56.431Z,2.40
2023-04-02T11:37:40.796Z,1.77
2023-04-02T11:40:44.975Z,1.90
2023-04-02T11:43:32.976Z,1.10
2023-04-02T11:46:03.565Z,1.85
2023-04-02T11:48:34.581Z,2.20
2023-04-02T11:51:00.991Z,1.65
2023-04-02T11:53:33.157Z,2.22
2023-04-02T11:56:08.519Z,1.75
2023-04-02T11:59:07.802Z,1.70
2023-04-02T12:02:04.512Z,1.40
2023-04-02T12:04:45.892Z,2.05
2023-04-02T12:07:30.081Z,2.10
2023-04-02T12:10:00.701Z,1.52
2023-04-02T12:12:32.797Z,1.27
2023-04-02T12:15:00.576Z,1.38
2023-04-02T12:17:38.714Z,1.67
2023-04-02T12:20:07.851Z,1.38
2023-04-02T12:22:38.026Z,1.75
2023-04-02T12:25:18.311Z,1.65
2023-04-02T12:27:44.715Z,1.52
2023-04-02T12:30:19.253Z,1.63
2023-04-02T12:32:45.884Z,2.03
2023-04-02T12:35:27.964Z,1.48
2023-04-02T12:37:54.457Z,2.25
2023-04-02T12:40:21.300Z,1.90
2023-04-02T12:42:47.656Z,1.10
2023-04-02T12:45:22.892Z,1.58
2023-04-02T12:47:49.248Z,1.40
2023-04-02T12:50:17.075Z,1.48
2023-04-02T12:52:49.282Z,1.50
2023-04-02T12:55:20.075Z,1.50
2023-04-02T12:57:46.446Z,1.58
2023-04-02T13:00:22.061Z,0.98
2023-04-02T13:03:12.805Z,1.42
2023-04-02T13:05:48.101Z,1.73
2023-04-02T13:08:41.544Z,1.55
2023-04-02T13:11:08.296Z,1.20
2023-04-02T13:13:37.822Z,1.50
2023-04-02T13:16:24.872Z,2.33
2023-04-02T13:18:51.353Z,1.75
2023-04-02T13:21:20.691Z,2.13
2023-04-02T13:23:47.478Z,1.90
2023-04-02T13:26:21.157Z,1.48
2023-04-02T13:28:56.634Z,2.28
2023-04-02T13:33:49.434Z,1.10
2023-04-02T13:36:15.808Z,1.63
2023-04-02T13:38:42.420Z,1.52
2023-04-02T13:41:25.210Z,1.17
2023-04-02T13:43:53.058Z,1.67
2023-04-02T13:46:25.250Z,1.45
2023-04-02T13:48:53.340Z,0.70
2023-04-02T13:51:22.741Z,1.38
2023-04-02T13:53:55.652Z,1.40
2023-04-02T13:56:22.102Z,1.15
2023-04-02T13:58:48.607Z,0.80
2023-04-02T14:01:15.089Z,1.70
2023-04-02T14:03:41.932Z,1.13
2023-04-02T14:06:29.748Z,1.17
2023-04-02T14:09:21.990Z,0.80
2023-04-02T14:12:10.757Z,1.05
2023-04-02T14:15:13.552Z,0.80
2023-04-02T14:18:04.562Z,0.68
2023-04-02T14:20:44.554Z,0.70
2023-04-02T14:23:29.508Z,0.70
2023-04-02T14:26:25.610Z,1.20
2023-04-02T14:28:54.691Z,1.10
2023-04-02T14:31:36.167Z,1.20
2023-04-02T14:34:11.281Z,0.98
2023-04-02T14:37:04.529Z,1.45
2023-04-02T14:39:59.735Z,0.75
2023-04-02T14:42:41.813Z,1.23
2023-04-02T14:45:12.555Z,1.15
2023-04-02T14:47:45.221Z,1.63
2023-04-02T14:50:17.006Z,2.13
2023-04-02T14:52:47.378Z,1.15
2023-04-02T14:55:26.087Z,1.42
2023-04-02T14:57:54.749Z,0.80
2023-04-02T15:01:02.764Z,1.30
2023-04-02T15:03:34.787Z,1.13
2023-04-02T15:06:12.180Z,0.82
2023-04-02T15:08:48.283Z,1.02
2023-04-02T15:11:29.820Z,1.13
2023-04-02T15:14:31.535Z,0.70
2023-04-02T15:16:57.971Z,2.25
2023-04-02T15:19:24.496Z,1.33
2023-04-02T15:22:09.480Z,0.90
2023-04-02T15:25:04.344Z,0.80
2023-04-02T15:28:07.629Z,1.00
2023-04-02T15:30:43.496Z,0.75
2023-04-02T15:33:28.069Z,0.80
2023-04-02T15:36:13.096Z,1.02
2023-04-02T15:38:57.731Z,0.40
2023-04-02T15:41:33.163Z,0.93
2023-04-02T15:44:09.920Z,0.43
2023-04-02T15:46:54.323Z,0.40
2023-04-02T15:49:39.547Z,0.70
2023-04-02T15:52:31.704Z,0.60
2023-04-02T15:55:32.632Z,0.57
2023-04-02T15:58:21.753Z,0.40
2023-04-02T16:01:03.931Z,0.60
2023-04-02T16:03:49.273Z,0.88
2023-04-02T16:06:31.150Z,0.60
2023-04-02T16:09:22.365Z,0.60
2023-04-02T16:12:21.258Z,0.90
2023-04-02T16:14:49.482Z,0.52
2023-04-02T16:17:25.581Z,0.85
2023-04-02T16:20:00.603Z,0.95
2023-04-02T16:22:30.010Z,0.98
2023-04-02T16:25:10.953Z,0.65
2023-04-02T16:27:45.047Z,0.68
2023-04-02T16:30:28.801Z,0.80
2023-04-02T16:33:27.256Z,0.50
2023-04-02T16:35:58.152Z,0.70
2023-04-02T16:38:49.043Z,0.60
2023-04-02T16:41:25.474Z,0.65
2023-04-02T16:44:10.330Z,0.50
2023-04-02T16:46:51.685Z,0.57
2023-04-02T16:49:32.926Z,1.05
2023-04-02T16:52:33.703Z,0.90
2023-04-02T16:55:12.119Z,0.40
2023-04-02T16:57:56.337Z,1.45
2023-04-02T17:00:45.267Z,0.88
2023-04-02T17:03:26.695Z,0.55
2023-04-02T17:06:04.531Z,0.75
2023-04-02T17:08:38.935Z,0.82
2023-04-02T17:11:14.793Z,0.47
2023-04-02T17:13:48.403Z,0.40
2023-04-02T17:16:35.326Z,0.60
2023-04-02T17:19:01.849Z,0.85
2023-04-02T17:21:30.872Z,0.82
2023-04-02T17:24:02.392Z,0.77
2023-04-02T17:26:32.680Z,0.57
2023-04-02T17:29:04.214Z,1.00
2023-04-02T17:31:33.192Z,0.63
2023-04-02T17:34:00.217Z,0.77
2023-04-02T17:37:03.738Z,0.77
2023-04-02T17:39:40.368Z,0.88
2023-04-02T17:42:28.425Z,0.63
2023-04-02T17:45:17.548Z,0.80
2023-04-02T17:48:04.348Z,1.23
2023-04-02T17:50:44.773Z,0.75
2023-04-02T17:53:26.912Z,1.60
2023-04-02T17:56:19.767Z,1.60
2023-04-02T17:59:20.301Z,1.85
2023-04-02T18:01:54.076Z,0.70
2023-04-02T18:04:54.753Z,0.57
2023-04-02T18:07:29.578Z,0.88
2023-04-02T18:10:09.921Z,1.23
2023-04-02T18:12:57.321Z,1.23
2023-04-02T18:15:48.491Z,0.82
2023-04-02T18:18:30.427Z,1.00
2023-04-02T18:21:24.302Z,0.98
2023-04-02T18:24:28.417Z,1.30
2023-04-02T18:27:22.506Z,1.13
2023-04-02T18:30:14.652Z,1.45
2023-04-02T18:33:01.334Z,1.23
2023-04-02T18:35:36.812Z,0.82
2023-04-02T18:41:19.488Z,0.90
2023-04-02T18:44:13.950Z,1.35
2023-04-02T18:46:54.084Z,2.15
2023-04-02T18:49:37.990Z,2.08
2023-04-02T18:52:12.486Z,2.60
2023-04-02T18:54:45.738Z,1.42
2023-04-02T18:57:21.048Z,1.20
2023-04-02T19:00:23.932Z,0.90
2023-04-02T19:03:00.231Z,0.65
2023-04-02T19:05:36.108Z,1.00
2023-04-02T19:08:13.733Z,0.80
2023-04-02T19:10:44.825Z,0.93
2023-04-02T19:13:16.284Z,0.63
2023-04-02T19:16:06.091Z,1.13
2023-04-02T19:18:51.681Z,0.70
2023-04-02T19:21:34.661Z,1.40
2023-04-02T19:24:40.172Z,0.70
2023-04-02T19:27:36.926Z,1.30
2023-04-02T19:30:27.117Z,0.73
2023-04-02T19:33:09.712Z,1.25
2023-04-02T19:35:45.652Z,0.60
2023-04-02T19:38:37.889Z,1.13
2023-04-02T19:41:25.265Z,0.65
2023-04-02T19:43:52.696Z,0.60
2023-04-02T19:46:19.056Z,0.93
2023-04-02T19:49:12.678Z,1.05
2023-04-02T19:51:38.967Z,1.17
2023-04-02T19:54:05.447Z,0.85
2023-04-02T19:56:31.999Z,0.90
2023-04-02T19:59:02.356Z,0.43
2023-04-02T20:01:31.546Z,0.50
2023-04-02T20:03:57.978Z,0.45
2023-04-02T20:06:24.339Z,0.77
2023-04-02T20:08:50.878Z,0.77
2023-04-02T20:11:17.213Z,0.30
2023-04-02T20:13:43.854Z,0.73
2023-04-02T20:16:10.434Z,0.70
2023-04-02T20:18:36.857Z,1.25
2023-04-02T20:21:05.440Z,1.17
2023-04-02T20:23:31.865Z,0.90
2023-04-02T20:25:58.363Z,1.35
2023-04-02T20:28:26.008Z,0.60
2023-04-02T20:30:52.939Z,0.75
2023-04-02T20:33:24.471Z,1.27
2023-04-02T20:35:52.850Z,0.75
2023-04-02T20:38:19.314Z,0.80
2023-04-02T20:40:45.748Z,0.70
2023-04-02T20:43:12.202Z,0.60
2023-04-02T20:45:38.491Z,0.60
2023-04-02T20:48:05.210Z,0.60
2023-04-02T20:50:31.607Z,0.80
2023-04-02T20:53:00.148Z,0.70
2023-04-02T20:55:26.570Z,1.20
2023-04-02T20:57:53.627Z,0.60
2023-04-02T21:00:20.164Z,1.30
2023-04-02T21:02:46.732Z,0.80
2023-04-02T21:05:13.202Z,1.13
2023-04-02T21:07:39.658Z,1.25
2023-04-02T21:10:07.470Z,0.50
2023-04-02T21:12:33.796Z,0.85
2023-04-02T21:15:02.230Z,0.32
2023-04-02T21:17:29.491Z,0.93
2023-04-02T21:19:56.121Z,0.55
2023-04-02T21:22:22.779Z,0.52
2023-04-02T21:24:49.207Z,1.08
2023-04-02T21:27:15.549Z,1.05
2023-04-02T21:29:41.942Z,0.30
2023-04-02T21:32:20.365Z,0.73
2023-04-02T21:34:47.461Z,0.95
2023-04-02T21:37:13.889Z,0.50
2023-04-02T21:39:40.454Z,0.50
2023-04-02T21:42:06.812Z,0.57
2023-04-02T21:44:33.277Z,0.77
2023-04-02T21:46:59.748Z,0.68
2023-04-02T21:49:26.196Z,0.70
2023-04-02T21:51:52.499Z,1.23
2023-04-02T21:54:19.547Z,0.82
2023-04-02T21:56:46.757Z,0.50
2023-04-02T21:59:15.867Z,1.30
2023-04-02T22:01:47.962Z,0.55
2023-04-02T22:04:17.444Z,0.82
2023-04-02T22:06:44.684Z,0.70
2023-04-02T22:09:15.419Z,0.50
2023-04-02T22:11:50.313Z,0.45
2023-04-02T22:14:17.091Z,0.60
2023-04-02T22:16:43.861Z,0.45
2023-04-02T22:19:13.719Z,0.60
2023-04-02T22:21:40.418Z,0.55
2023-04-02T22:24:09.356Z,0.47
2023-04-02T22:26:36.162Z,0.40
2023-04-02T22:29:02.683Z,0.40
2023-04-02T22:31:31.113Z,0.63
2023-04-02T22:33:58.011Z,0.90
2023-04-02T22:36:26.163Z,0.85
2023-04-02T22:38:53.031Z,1.08
2023-04-02T22:41:22.825Z,0.28
2023-04-02T22:43:49.404Z,1.02
2023-04-02T22:46:17.499Z,1.15
2023-04-02T22:48:44.688Z,0.68
2023-04-02T22:51:13.051Z,0.70
2023-04-02T22:53:39.697Z,1.13
2023-04-02T22:56:08.038Z,0.65
2023-04-02T22:58:35.323Z,0.47
2023-04-02T23:01:17.629Z,0.60
2023-04-02T23:03:44.020Z,0.60
2023-04-02T23:06:13.455Z,0.55
2023-04-02T23:08:41.436Z,0.40
2023-04-02T23:11:12.250Z,1.40
2023-04-02T23:13:39.830Z,0.60
2023-04-02T23:16:10.124Z,0.70
2023-04-02T23:18:38.040Z,0.80
2023-04-02T23:21:05.699Z,1.08
2023-04-02T23:23:33.089Z,1.02
2023-04-02T23:26:14.601Z,0.98
2023-04-02T23:28:41.705Z,1.00
2023-04-02T23:31:12.318Z,0.80
2023-04-02T23:33:39.320Z,0.63
2023-04-02T23:36:10.504Z,0.90
2023-04-02T23:38:36.993Z,0.82
2023-04-02T23:41:03.707Z,0.70
2023-04-02T23:43:30.106Z,0.80
2023-04-02T23:45:56.772Z,0.75
2023-04-02T23:48:23.391Z,0.40
2023-04-02T23:50:49.773Z,0.50
2023-04-02T23:53:16.073Z,0.43
2023-04-02T23:55:42.459Z,0.80
2023-04-02T23:58:08.777Z,0.63
